Latest Weather Observations for Moranbah Airport

IDQ60801

Issued at 7:32 pm EST Tuesday 28 February 2017 (issued every 30 minutes, with the page automatically refreshed every 10 minutes)

About weather observations | Map of weather stations | Latest weather observations for QLD | Other Formats
Station Details ID: 034035 Name: MORANBAH AIRPORT Lat: -22.06 Lon: 148.08 Height: 232.2 m
Data from the previous 72 hours. | See also: Recent months at Moranbah Airport
Date/Time
EST
Temp
°C
App
Temp
°C
Dew
Point
°C
Rel
Hum
%
Delta-T
°C
Wind Press
QNH
hPa
Press
MSL
hPa
Rain since
9am
mm
Dir  Spd
km/h
Gust
km/h
Spd
kts
Gust
kts
28/07:00pm 28.6 27.1 17.8 52 6.9 ENE 22 32 12 17 1012.1 1010.6 0.0
28/06:30pm 29.8 26.4 17.6 48 7.8 ENE 32 44 17 24 1011.6 1010.1 0.0
28/06:00pm 31.3 28.5 15.3 38 10.0 E 24 30 13 16 1011.0 1009.5 0.0
28/05:30pm 32.8 29.5 14.9 34 11.1 E 26 35 14 19 1010.6 1009.0 0.0
28/05:00pm 33.2 29.5 13.8 31 11.9 NE 26 37 14 20 1010.3 1008.7 0.0
28/04:30pm 34.3 31.1 12.0 25 13.4 ESE 20 26 11 14 1010.4 1008.8 0.0
28/04:00pm 33.3 30.4 12.9 29 12.4 E 20 26 11 14 1010.5 1008.9 0.0
28/03:30pm 34.3 31.7 13.2 28 12.9 SE 19 32 10 17 1010.7 1009.1 0.0
28/03:00pm 34.4 31.8 13.3 28 12.9 ESE 19 26 10 14 1010.8 1009.2 0.0
28/02:30pm 33.9 31.2 12.8 28 12.8 SE 19 26 10 14 1011.2 1009.7 0.0
28/02:00pm 33.8 31.0 13.3 29 12.5 ESE 20 32 11 17 1011.5 1010.0 0.0
28/01:30pm 32.3 30.5 14.4 33 11.0 ESE 17 30 9 16 1011.9 1010.4 0.0
28/01:00pm 32.0 28.6 13.7 33 11.2 ESE 24 41 13 22 1012.5 1010.9 0.0
28/12:30pm 32.2 29.8 14.3 33 11.0 E 20 39 11 21 1012.8 1011.2 0.0
28/12:00pm 32.0 30.5 16.3 39 9.9 SE 19 28 10 15 1013.3 1011.7 0.0
28/11:30am 31.6 30.0 16.4 40 9.6 ESE 20 35 11 19 1013.7 1012.1 0.0
28/11:00am 31.3 30.3 17.9 44 8.7 E 20 33 11 18 1013.9 1012.3 0.0
28/10:30am 29.6 28.7 17.8 49 7.6 ESE 19 28 10 15 1014.4 1012.8 0.0
28/10:00am 29.5 28.8 18.6 52 7.1 E 20 30 11 16 1014.7 1013.1 0.0
28/09:30am 26.8 25.3 17.8 57 5.7 ESE 22 32 12 17 1014.9 1013.4 0.0
28/09:00am 27.1 26.0 18.7 60 5.4 E 22 35 12 19 1015.0 1013.5 0.0
28/08:30am 26.3 25.1 19.2 65 4.6 ESE 24 32 13 17 1015.0 1013.5 0.0
28/08:00am 25.4 24.9 19.1 68 4.1 ESE 20 28 11 15 1014.8 1013.3 0.0
28/07:30am 24.4 24.0 18.8 71 3.6 SE 19 24 10 13 1014.5 1012.9 0.0
28/07:00am 22.6 22.4 18.6 78 2.5 SE 17 20 9 11 1014.3 1012.7 0.0
28/06:30am 20.7 21.2 18.3 86 1.5 SE 13 15 7 8 1014.1 1012.5 0.0
28/06:00am 20.1 20.4 17.9 87 1.4 SE 13 15 7 8 1014.1 1012.5 0.0
28/05:30am 20.6 21.0 18.2 86 1.5 SE 13 17 7 9 1013.9 1012.3 0.0
28/05:00am 20.6 21.5 18.4 87 1.4 SE 11 13 6 7 1013.6 1012.0 0.0
28/04:30am 21.0 22.0 18.6 86 1.5 SE 11 15 6 8 1013.6 1012.0 0.0
28/04:00am 21.1 21.7 18.5 85 1.6 SE 13 17 7 9 1013.6 1012.0 0.0
28/03:30am 21.5 21.8 18.7 84 1.8 ESE 15 19 8 10 1013.4 1011.8 0.0
28/03:00am 21.2 21.6 18.2 83 1.9 SE 13 17 7 9 1013.4 1011.8 0.0
28/02:30am 21.5 22.1 18.7 84 1.8 SE 13 15 7 8 1013.6 1012.0 0.0
28/02:00am 21.2 22.0 18.2 83 1.9 ESE 11 11 6 6 1013.8 1012.2 0.0
28/01:30am 22.1 22.7 18.7 81 2.2 ESE 13 15 7 8 1014.2 1012.6 0.0
28/01:00am 22.0 22.5 18.4 80 2.3 SE 13 15 7 8 1014.3 1012.7 0.0
28/12:30am 22.1 22.4 17.9 77 2.6 SE 13 15 7 8 1014.6 1013.0 0.0
28/12:00am 22.9 23.5 18.7 77 2.7 ESE 13 15 7 8 1014.8 1013.3 0.0
 
Date/Time
EST
Temp
°C
App
Temp
°C
Dew
Point
°C
Rel
Hum
%
Delta-T
°C
Wind Press
QNH
hPa
Press
MSL
hPa
Rain since
9am
mm
Dir  Spd
km/h
Gust
km/h
Spd
kts
Gust
kts
27/11:30pm 23.2 23.8 18.7 76 2.9 ESE 13 15 7 8 1014.8 1013.3 0.0
27/11:00pm 23.7 25.0 18.4 72 3.4 E 9 13 5 7 1014.7 1013.1 0.0
27/10:30pm 24.3 24.7 18.2 68 3.9 E 13 15 7 8 1014.7 1013.1 0.0
27/10:00pm 24.7 25.0 17.9 66 4.3 E 13 17 7 9 1014.3 1012.7 0.0
27/09:30pm 25.2 25.4 17.7 63 4.7 E 13 15 7 8 1014.1 1012.5 0.0
27/09:00pm 26.1 25.9 17.5 59 5.4 E 15 20 8 11 1013.7 1012.1 0.0
27/08:30pm 26.7 25.5 17.5 57 5.8 ENE 20 32 11 17 1013.4 1011.8 0.0
27/08:00pm 27.3 26.4 17.8 56 6.1 NE 19 24 10 13 1012.8 1011.2 0.0
27/07:30pm 28.1 27.6 17.0 51 7.0 ENE 15 20 8 11 1012.5 1010.9 0.0
27/07:00pm 28.9 27.3 16.5 47 7.8 ENE 20 28 11 15 1012.0 1010.5 0.0
27/06:30pm 30.0 27.9 16.1 43 8.7 NE 22 28 12 15 1011.5 1010.0 0.0
27/06:00pm 31.2 28.1 15.6 39 9.8 ENE 26 35 14 19 1011.1 1009.6 0.0
27/05:30pm 33.6 29.9 12.6 28 12.7 ESE 24 32 13 17 1010.5 1008.9 0.0
27/05:00pm 34.4 32.4 12.7 27 13.2 ESE 15 32 8 17 1010.3 1008.7 0.0
27/04:30pm 33.3 30.6 12.9 29 12.4 SE 19 24 10 13 1010.5 1008.9 0.0
27/04:00pm 34.4 31.6 12.7 27 13.2 SE 19 33 10 18 1010.4 1008.8 0.0
27/03:30pm 34.6 31.5 13.4 28 13.0 SE 22 35 12 19 1010.4 1008.8 0.0
27/03:00pm 33.7 31.2 14.2 30 12.1 ESE 20 37 11 20 1010.8 1009.2 0.0
27/02:30pm 33.8 31.8 13.8 30 12.3 ESE 17 30 9 16 1011.2 1009.7 0.0
27/02:00pm 33.5 30.6 14.0 30 12.0 SE 22 37 12 20 1011.7 1010.2 0.0
27/01:30pm 32.4 29.7 13.6 32 11.5 ESE 20 33 11 18 1012.0 1010.5 0.0
27/01:00pm 32.5 29.6 14.1 32 11.3 E 22 35 12 19 1012.7 1011.1 0.0
27/12:30pm 33.4 31.7 16.3 36 10.9 ESE 20 30 11 16 1013.2 1011.6 0.0
27/12:00pm 31.6 29.6 15.5 37 10.1 ESE 20 32 11 17 1013.9 1012.3 0.0
27/11:30am 30.6 28.9 16.2 41 9.1 ENE 20 32 11 17 1014.2 1012.6 0.0
27/11:00am 29.4 27.2 15.9 44 8.4 E 22 35 12 19 1014.6 1013.0 0.0
27/10:30am 30.0 28.1 16.8 45 8.4 E 22 35 12 19 1014.8 1013.3 0.0
27/10:00am 29.2 27.7 17.7 50 7.4 SE 22 33 12 18 1014.9 1013.4 0.0
27/09:30am 28.4 27.2 18.5 55 6.4 E 22 33 12 18 1015.0 1013.5 0.0
27/09:00am 27.6 25.9 18.0 55 6.1 E 24 33 13 18 1015.0 1013.5 0.0
27/08:30am 26.9 25.0 18.5 60 5.4 ESE 26 35 14 19 1014.9 1013.4 0.0
27/08:00am 26.1 24.9 19.2 65 4.5 ESE 24 30 13 16 1014.6 1013.0 0.0
27/07:30am 25.1 24.4 19.5 71 3.6 ESE 22 28 12 15 1014.6 1013.0 0.0
27/07:00am 24.0 23.6 18.9 73 3.3 SE 19 24 10 13 1014.4 1012.8 0.0
27/06:30am 23.3 23.0 18.2 73 3.2 ESE 17 20 9 11 1014.1 1012.5 0.0
27/06:00am 23.4 22.1 18.1 72 3.4 ESE 22 28 12 15 1014.0 1012.4 0.0
27/05:30am 23.9 22.2 18.1 70 3.7 SE 24 32 13 17 1013.9 1012.3 0.0
27/05:00am 24.1 23.2 18.1 69 3.8 SE 20 30 11 16 1013.8 1012.2 0.0
27/04:30am 24.0 23.0 17.5 67 4.1 SE 19 26 10 14 1013.6 1012.0 0.0
27/04:00am 24.0 22.8 17.5 67 4.1 SE 20 24 11 13 1013.5 1011.9 0.0
27/03:30am 24.0 23.2 18.0 69 3.8 ESE 19 24 10 13 1013.6 1012.0 0.0
27/03:00am 23.6 23.2 18.0 71 3.5 SE 17 22 9 12 1013.7 1012.1 0.0
27/02:30am 23.3 23.1 17.7 71 3.5 SE 15 17 8 9 1013.7 1012.1 0.0
27/02:00am 23.6 23.9 17.8 70 3.7 SE 13 15 7 8 1014.2 1012.6 0.0
27/01:30am 23.5 23.6 17.5 69 3.8 SE 13 17 7 9 1014.6 1013.0 0.0
27/01:00am 23.2 22.1 17.4 70 3.6 SE 19 22 10 12 1014.9 1013.4 0.0
27/12:30am 22.9 22.6 17.4 71 3.4 SE 15 19 8 10 1014.8 1013.3 0.0
27/12:00am 23.5 23.6 17.5 69 3.8 ESE 13 15 7 8 1014.6 1013.0 0.0
 
Date/Time
EST
Temp
°C
App
Temp
°C
Dew
Point
°C
Rel
Hum
%
Delta-T
°C
Wind Press
QNH
hPa
Press
MSL
hPa
Rain since
9am
mm
Dir  Spd
km/h
Gust
km/h
Spd
kts
Gust
kts
26/11:30pm 23.5 23.4 17.0 67 4.0 ESE 13 15 7 8 1014.7 1013.1 0.0
26/11:00pm 24.3 24.3 17.1 64 4.5 E 13 17 7 9 1014.1 1012.5 0.0
26/10:30pm 24.8 24.8 17.3 63 4.7 E 13 19 7 10 1013.5 1011.9 0.0
26/10:00pm 25.1 26.9 17.3 62 4.9 ENE 4 9 2 5 1013.6 1012.0 0.0
26/09:30pm 26.0 24.8 17.6 60 5.3 ENE 20 26 11 14 1013.7 1012.1 0.0
26/09:00pm 26.6 23.8 17.4 57 5.8 ENE 28 35 15 19 1013.3 1011.7 0.0
26/08:30pm 27.6 25.3 17.5 54 6.4 ENE 26 37 14 20 1013.2 1011.6 0.0
26/08:00pm 28.6 25.5 17.5 51 7.1 ENE 30 39 16 21 1012.3 1010.7 0.0
26/07:30pm 29.4 27.8 16.6 46 8.1 NE 20 28 11 15 1011.4 1009.9 0.0
26/07:00pm 30.4 27.3 15.7 41 9.2 NE 26 33 14 18 1010.6 1009.0 0.0
26/06:30pm 32.4 28.9 12.1 29 12.1 ESE 22 30 12 16 1010.0 1008.4 0.0
26/06:00pm 33.4 29.3 11.3 26 13.1 ESE 24 32 13 17 1009.7 1008.1 0.0
26/05:30pm 34.2 30.8 11.4 25 13.5 ESE 20 28 11 15 1009.3 1007.7 0.0
26/05:00pm 34.8 30.6 11.2 24 14.0 ESE 24 35 13 19 1009.3 1007.7 0.0
26/04:30pm 35.6 31.5 11.3 23 14.5 E 24 35 13 19 1009.4 1007.8 0.0
26/04:00pm 35.0 30.1 11.4 24 14.1 ESE 28 35 15 19 1009.6 1008.0 0.0
26/03:50pm 36.0 31.6 11.6 23 14.6 E 26 54 14 29 1009.3 1007.7 0.0
26/03:30pm 34.6 30.4 11.1 24 13.9 ESE 24 33 13 18 1009.8 1008.2 0.0
26/03:00pm 35.3 31.3 11.7 24 14.2 ESE 24 33 13 18 1010.1 1008.5 0.0
26/02:30pm 34.4 29.6 11.5 25 13.6 ESE 28 43 15 23 1010.4 1008.8 0.0
26/02:00pm 34.6 30.2 11.7 25 13.7 ESE 26 39 14 21 1010.8 1009.2 0.0
26/01:30pm 33.7 28.7 9.7 23 13.9 ESE 26 43 14 23 1011.3 1009.8 0.0
26/01:00pm 34.2 30.0 12.5 27 13.1 ESE 26 37 14 20 1011.7 1010.2 0.0
26/12:30pm 32.8 29.9 12.9 29 12.0 ESE 20 30 11 16 1012.4 1010.8 0.0
26/12:00pm 33.0 30.4 15.0 33 11.2 ESE 22 32 12 17 1012.9 1011.3 0.0
26/11:30am 32.5 29.9 15.9 36 10.5 SE 24 35 13 19 1013.5 1011.9 0.0
26/11:00am 30.9 27.6 14.9 37 9.9 SE 26 35 14 19 1013.8 1012.2 0.0
26/10:30am 30.3 28.2 16.3 42 8.8 E 22 35 12 19 1014.3 1012.7 0.0
26/10:00am 30.1 27.1 16.9 45 8.4 ESE 28 37 15 20 1014.6 1013.0 0.0
26/09:30am 29.3 28.0 18.1 51 7.2 ESE 22 35 12 19 1014.4 1012.8 0.0
26/09:00am 28.1 26.6 18.5 56 6.2 ESE 24 33 13 18 1014.6 1013.0 0.0
26/08:30am 27.2 25.8 18.8 60 5.4 ESE 24 32 13 17 1014.4 1012.8 0.0
26/08:00am 26.0 24.6 19.6 68 4.2 ESE 26 37 14 20 1014.4 1012.8 0.0
26/07:30am 24.5 24.2 19.6 74 3.2 SE 20 30 11 16 1014.3 1012.7 0.0
26/07:00am 23.2 23.0 19.8 81 2.2 SE 20 26 11 14 1013.9 1012.3 0.0
26/06:30am 21.9 23.1 19.8 88 1.4 SE 13 15 7 8 1013.3 1011.7 0.0
26/06:00am 21.3 22.8 19.0 87 1.5 SE 9 11 5 6 1012.8 1011.2 0.0
26/05:30am 21.9 23.3 19.5 86 1.5 SE 11 15 6 8 1012.7 1011.1 0.0
26/05:00am 22.2 23.5 19.4 84 1.8 SE 11 15 6 8 1012.4 1010.8 0.0
26/04:30am 21.7 23.0 19.3 86 1.5 SE 11 13 6 7 1012.1 1010.6 0.0
26/04:00am 21.0 22.1 18.9 88 1.3 ESE 11 13 6 7 1011.7 1010.2 0.0
26/03:30am 21.1 21.7 18.5 85 1.6 SE 13 13 7 7 1011.7 1010.2 0.0
26/03:00am 21.9 22.3 19.1 84 1.8 SSE 15 17 8 9 1011.8 1010.3 0.0
26/02:30am 21.7 22.3 18.7 83 1.9 SSE 13 15 7 8 1011.9 1010.4 0.0
26/02:00am 21.9 22.6 18.9 83 1.9 SSE 13 15 7 8 1011.9 1010.4 0.0
26/01:30am 21.7 22.7 18.7 83 1.9 ESE 11 13 6 7 1011.8 1010.3 0.0
26/01:00am 21.9 22.7 18.1 79 2.4 ESE 11 13 6 7 1012.1 1010.6 0.0
26/12:30am 22.5 23.5 18.7 79 2.4 SE 11 13 6 7 1012.6 1011.0 0.0
26/12:00am 22.3 23.0 17.9 76 2.8 ESE 11 13 6 7 1012.7 1011.1 0.0
 
Date/Time
EST
Temp
°C
App
Temp
°C
Dew
Point
°C
Rel
Hum
%
Delta-T
°C
Wind Press
QNH
hPa
Press
MSL
hPa
Rain since
9am
mm
Dir  Spd
km/h
Gust
km/h
Spd
kts
Gust
kts
25/11:30pm 22.9 24.2 17.1 70 3.6 ENE 6 6 3 3 1012.9 1011.3 0.0
25/11:00pm 23.3 25.2 16.8 67 4.0 SSE 2 6 1 3 1012.9 1011.3 0.0
25/10:30pm 24.4 25.3 17.6 66 4.3 ENE 9 11 5 6 1012.8 1011.2 0.0
25/10:00pm 25.1 26.5 17.8 64 4.6 ENE 7 11 4 6 1012.9 1011.3 0.0
25/09:30pm 26.1 25.6 17.7 60 5.3 ENE 17 26 9 14 1012.8 1011.2 0.0
25/09:00pm 26.9 25.8 17.7 57 5.9 ENE 20 28 11 15 1012.5 1010.9 0.0
25/08:30pm 27.9 26.2 17.1 51 6.8 ENE 22 30 12 16 1012.3 1010.7 0.0
25/08:00pm 28.9 27.3 16.5 47 7.8 NE 20 32 11 17 1012.0 1010.5 0.0

Other Formats:

Comma delimited format used in spreadsheet applications
http://www.bom.gov.au/fwo/IDQ60801/IDQ60801.94397.axf

JavaScript Object Notation format (JSON) in row-major order
http://www.bom.gov.au/fwo/IDQ60801/IDQ60801.94397.json